createdAt,value
2017-11-16T00:00:37.662Z,1025.04
2017-11-16T00:01:47.063Z,1025.04
2017-11-16T00:02:55.893Z,1025
2017-11-16T00:04:04.725Z,1024.99
2017-11-16T00:05:13.658Z,1025.05
2017-11-16T00:06:22.489Z,1024.98
2017-11-16T00:07:31.321Z,1025
2017-11-16T00:08:40.437Z,1024.99
2017-11-16T00:09:49.541Z,1025.02
2017-11-16T00:10:58.623Z,1025.02
2017-11-16T00:12:07.459Z,1025.04
2017-11-16T00:13:16.566Z,1025.02
2017-11-16T00:14:25.399Z,1025.07
2017-11-16T00:15:34.229Z,1025.06
2017-11-16T00:16:43.450Z,1025.07
2017-11-16T00:17:52.282Z,1025.06
2017-11-16T00:19:01.108Z,1025.08
2017-11-16T00:20:09.939Z,1025.07
2017-11-16T00:21:18.771Z,1025.04
2017-11-16T00:22:28.185Z,1025.05
2017-11-16T00:23:37.009Z,1025.05
2017-11-16T00:24:45.839Z,1025.07
2017-11-16T00:25:54.668Z,1025.04
2017-11-16T00:27:03.499Z,1025.09
2017-11-16T00:28:12.911Z,1025.04
2017-11-16T00:29:21.738Z,1025.03
2017-11-16T00:30:30.879Z,1025
2017-11-16T00:31:39.717Z,1024.96
2017-11-16T00:32:48.549Z,1024.9
2017-11-16T00:33:57.678Z,1024.93
2017-11-16T00:35:06.558Z,1024.9
2017-11-16T00:36:15.392Z,1024.92
2017-11-16T00:37:24.221Z,1024.89
2017-11-16T00:38:33.055Z,1024.93
2017-11-16T00:39:42.187Z,1024.97
2017-11-16T00:40:51.015Z,1024.91
2017-11-16T00:41:59.847Z,1024.92
2017-11-16T00:43:08.728Z,1024.93
2017-11-16T00:44:17.555Z,1024.89
2017-11-16T00:45:26.635Z,1024.96
2017-11-16T00:46:35.464Z,1024.96
2017-11-16T00:47:44.297Z,1024.97
2017-11-16T00:48:53.128Z,1024.93
2017-11-16T00:50:01.957Z,1024.97
2017-11-16T00:51:10.792Z,1024.92
2017-11-16T00:52:19.903Z,1024.9
2017-11-16T00:53:29.010Z,1024.88
2017-11-16T00:54:37.844Z,1024.87
2017-11-16T00:55:46.674Z,1024.84
2017-11-16T00:56:55.503Z,1024.82
2017-11-16T00:58:04.334Z,1024.84
2017-11-16T00:59:13.167Z,1024.81
2017-11-16T01:00:21.995Z,1024.85
2017-11-16T01:01:30.825Z,1024.85
2017-11-16T01:02:40.009Z,1024.84
2017-11-16T01:03:48.838Z,1024.82
2017-11-16T01:04:57.668Z,1024.84
2017-11-16T01:06:06.783Z,1024.81
2017-11-16T01:07:15.613Z,1024.81
2017-11-16T01:08:24.846Z,1024.82
2017-11-16T01:09:33.678Z,1024.83
2017-11-16T01:10:42.515Z,1024.83
2017-11-16T01:11:51.345Z,1024.85
2017-11-16T01:13:00.176Z,1024.82
2017-11-16T01:14:09.056Z,1024.82
2017-11-16T01:15:17.893Z,1024.82
2017-11-16T01:16:26.718Z,1024.81
2017-11-16T01:17:35.549Z,1024.8
2017-11-16T01:18:44.379Z,1024.79
2017-11-16T01:19:53.360Z,1024.8
2017-11-16T01:21:02.194Z,1024.75
2017-11-16T01:22:11.304Z,1024.72
2017-11-16T01:23:20.135Z,1024.75
2017-11-16T01:24:28.965Z,1024.69
2017-11-16T01:25:37.954Z,1024.72
2017-11-16T01:26:47.056Z,1024.68
2017-11-16T01:27:56.164Z,1024.68
2017-11-16T01:29:04.992Z,1024.67
2017-11-16T01:30:13.824Z,1024.71
2017-11-16T01:31:22.955Z,1024.64
2017-11-16T01:32:31.787Z,1024.7
2017-11-16T01:33:40.616Z,1024.6
2017-11-16T01:34:49.450Z,1024.65
2017-11-16T01:35:58.554Z,1024.64
2017-11-16T01:37:07.386Z,1024.6
2017-11-16T01:38:17.774Z,1024.61
2017-11-16T01:39:26.605Z,1024.57
2017-11-16T01:40:35.435Z,1024.59
2017-11-16T01:41:44.548Z,1024.57
2017-11-16T01:42:53.728Z,1024.54
2017-11-16T01:44:02.830Z,1024.54
2017-11-16T01:45:11.938Z,1024.53
2017-11-16T01:46:20.769Z,1024.51
2017-11-16T01:47:29.600Z,1024.52
2017-11-16T01:48:38.478Z,1024.52
2017-11-16T01:49:47.308Z,1024.51
2017-11-16T01:50:56.143Z,1024.48
2017-11-16T01:52:04.975Z,1024.47
2017-11-16T01:53:14.078Z,1024.43
2017-11-16T01:54:23.059Z,1024.38
2017-11-16T01:55:32.173Z,1024.4
2017-11-16T01:56:41.002Z,1024.38
2017-11-16T01:57:49.835Z,1024.41
2017-11-16T01:58:58.663Z,1024.4
2017-11-16T02:00:07.667Z,1024.39
2017-11-16T02:01:16.784Z,1024.38
2017-11-16T02:02:25.615Z,1024.4
2017-11-16T02:03:34.445Z,1024.35
2017-11-16T02:04:43.275Z,1024.36
2017-11-16T02:05:52.732Z,1024.33
2017-11-16T02:07:02.129Z,1024.3
2017-11-16T02:08:11.236Z,1024.31
2017-11-16T02:09:20.069Z,1024.3
2017-11-16T02:10:28.898Z,1024.3
2017-11-16T02:11:38.022Z,1024.37
2017-11-16T02:12:47.177Z,1024.3
2017-11-16T02:13:56.009Z,1024.35
2017-11-16T02:15:04.831Z,1024.33
2017-11-16T02:16:13.945Z,1024.32
2017-11-16T02:17:23.577Z,1024.34
2017-11-16T02:18:32.406Z,1024.33
2017-11-16T02:19:41.237Z,1024.27
2017-11-16T02:20:50.065Z,1024.28
2017-11-16T02:21:58.895Z,1024.25
2017-11-16T02:23:07.727Z,1024.27
2017-11-16T02:24:16.557Z,1024.26
2017-11-16T02:25:25.386Z,1024.21
2017-11-16T02:26:34.215Z,1024.17
2017-11-16T02:27:43.043Z,1024.19
2017-11-16T02:28:52.123Z,1024.19
2017-11-16T02:30:00.951Z,1024.17
2017-11-16T02:31:09.785Z,1024.2
2017-11-16T02:32:18.897Z,1024.21
2017-11-16T02:33:27.723Z,1024.22
2017-11-16T02:34:36.712Z,1024.21
2017-11-16T02:35:45.545Z,1024.17
2017-11-16T02:36:54.389Z,1024.13
2017-11-16T02:38:03.205Z,1024.13
2017-11-16T02:39:12.034Z,1024.13
2017-11-16T02:40:21.403Z,1024.14
2017-11-16T02:41:30.788Z,1024.14
2017-11-16T02:42:39.620Z,1024.15
2017-11-16T02:43:48.455Z,1024.13
2017-11-16T02:44:57.284Z,1024.13
2017-11-16T02:46:06.264Z,1024.17
2017-11-16T02:47:15.096Z,1024.19
2017-11-16T02:48:23.931Z,1024.2
2017-11-16T02:49:32.770Z,1024.21
2017-11-16T02:50:41.599Z,1024.16
2017-11-16T02:51:50.529Z,1024.18
2017-11-16T02:53:00.197Z,1024.14
2017-11-16T02:54:09.028Z,1024.11
2017-11-16T02:55:17.859Z,1024.13
2017-11-16T02:56:26.969Z,1024.11
2017-11-16T02:57:35.799Z,1024.1
2017-11-16T02:58:44.628Z,1024.11
2017-11-16T02:59:53.459Z,1024.1
2017-11-16T03:01:02.291Z,1024.07
2017-11-16T03:02:11.130Z,1024.07
2017-11-16T03:03:20.394Z,1024.1
2017-11-16T03:04:29.224Z,1024.12
2017-11-16T03:05:38.339Z,1024.15
2017-11-16T03:06:47.177Z,1024.15
2017-11-16T03:07:56.003Z,1024.08
2017-11-16T03:09:04.883Z,1024.12
2017-11-16T03:10:13.712Z,1024.15
2017-11-16T03:11:22.834Z,1024.19
2017-11-16T03:12:31.664Z,1024.19
2017-11-16T03:13:40.493Z,1024.16
2017-11-16T03:14:49.321Z,1024.13
2017-11-16T03:15:58.150Z,1024.12
2017-11-16T03:17:06.978Z,1024.13
2017-11-16T03:18:15.809Z,1024.1
2017-11-16T03:19:24.640Z,1024.09
2017-11-16T03:20:33.750Z,1024.12
2017-11-16T03:21:42.579Z,1024.11
2017-11-16T03:22:51.412Z,1024.08
2017-11-16T03:24:00.242Z,1024.09
2017-11-16T03:25:09.353Z,1024.07
2017-11-16T03:26:18.333Z,1024.05
2017-11-16T03:27:27.173Z,1024.08
2017-11-16T03:28:35.995Z,1024.06
2017-11-16T03:29:44.826Z,1024.06
2017-11-16T03:30:53.937Z,1024.12
2017-11-16T03:32:02.918Z,1024.07
2017-11-16T03:33:11.748Z,1024.13
2017-11-16T03:34:20.579Z,1024.07
2017-11-16T03:35:29.411Z,1024.04
2017-11-16T03:36:38.246Z,1024.03
2017-11-16T03:37:47.070Z,1024.06
2017-11-16T03:38:55.905Z,1023.99
2017-11-16T03:40:04.729Z,1023.98
2017-11-16T03:41:13.559Z,1023.99
2017-11-16T03:42:22.386Z,1023.92
2017-11-16T03:43:31.544Z,1023.93
2017-11-16T03:44:40.373Z,1023.91
2017-11-16T03:45:49.203Z,1023.92
2017-11-16T03:46:58.037Z,1023.92
2017-11-16T03:48:06.868Z,1023.94
2017-11-16T03:49:15.699Z,1023.95
2017-11-16T03:50:24.526Z,1023.92
2017-11-16T03:51:33.356Z,1023.87
2017-11-16T03:52:42.186Z,1023.89
2017-11-16T03:53:51.016Z,1023.86
2017-11-16T03:55:00.046Z,1023.85
2017-11-16T03:56:08.877Z,1023.88
2017-11-16T03:57:17.709Z,1023.88
2017-11-16T03:58:26.828Z,1023.9
2017-11-16T03:59:35.657Z,1023.89
2017-11-16T04:00:44.487Z,1023.92
2017-11-16T04:01:53.319Z,1023.86
2017-11-16T04:03:02.148Z,1023.87
2017-11-16T04:04:10.980Z,1023.88
2017-11-16T04:05:19.812Z,1023.89
2017-11-16T04:06:28.642Z,1023.92
2017-11-16T04:07:37.471Z,1023.95
2017-11-16T04:08:46.589Z,1023.97
2017-11-16T04:09:55.420Z,1023.97
2017-11-16T04:11:04.250Z,1023.93
2017-11-16T04:12:13.232Z,1023.93
2017-11-16T04:13:22.062Z,1023.95
2017-11-16T04:14:30.913Z,1023.95
2017-11-16T04:15:39.739Z,1023.91
2017-11-16T04:16:48.575Z,1023.92
2017-11-16T04:17:57.406Z,1023.93
2017-11-16T04:19:06.236Z,1023.88
2017-11-16T04:20:15.347Z,1023.92
2017-11-16T04:21:24.176Z,1023.89
2017-11-16T04:22:33.007Z,1023.88
2017-11-16T04:23:41.836Z,1023.84
2017-11-16T04:24:50.664Z,1023.83
2017-11-16T04:25:59.495Z,1023.85
2017-11-16T04:27:08.328Z,1023.87
2017-11-16T04:28:17.161Z,1023.89
2017-11-16T04:29:26.304Z,1023.82
2017-11-16T04:30:35.133Z,1023.82
2017-11-16T04:31:44.238Z,1023.79
2017-11-16T04:32:53.072Z,1023.75
2017-11-16T04:34:01.901Z,1023.73
2017-11-16T04:35:10.731Z,1023.74
2017-11-16T04:36:19.562Z,1023.7
2017-11-16T04:37:28.392Z,1023.67
2017-11-16T04:38:37.223Z,1023.65
2017-11-16T04:39:46.056Z,1023.62
2017-11-16T04:40:54.936Z,1023.59
2017-11-16T04:42:03.775Z,1023.58
2017-11-16T04:43:12.597Z,1023.57
2017-11-16T04:44:21.427Z,1023.57
2017-11-16T04:45:30.540Z,1023.56
2017-11-16T04:46:39.371Z,1023.56
2017-11-16T04:47:48.201Z,1023.53
2017-11-16T04:48:57.052Z,1023.51
2017-11-16T04:50:05.861Z,1023.49
2017-11-16T04:51:15.000Z,1023.49
2017-11-16T04:52:23.879Z,1023.46
2017-11-16T04:53:32.709Z,1023.47
2017-11-16T04:54:41.539Z,1023.49
2017-11-16T04:55:50.369Z,1023.48
2017-11-16T04:56:59.487Z,1023.47
2017-11-16T04:58:08.317Z,1023.51
2017-11-16T04:59:17.151Z,1023.49
2017-11-16T05:00:25.976Z,1023.5
2017-11-16T05:01:34.808Z,1023.49
2017-11-16T05:02:43.639Z,1023.49
2017-11-16T05:03:52.469Z,1023.52
2017-11-16T05:05:01.305Z,1023.51
2017-11-16T05:06:10.130Z,1023.46
2017-11-16T05:07:18.964Z,1023.48
2017-11-16T05:08:28.095Z,1023.48
2017-11-16T05:09:36.923Z,1023.49
2017-11-16T05:10:45.761Z,1023.47
2017-11-16T05:11:54.591Z,1023.47
2017-11-16T05:13:03.420Z,1023.47
2017-11-16T05:14:12.255Z,1023.45
2017-11-16T05:15:21.188Z,1023.42
2017-11-16T05:16:30.009Z,1023.44
2017-11-16T05:17:38.838Z,1023.48
2017-11-16T05:18:47.669Z,1023.46
2017-11-16T05:19:56.498Z,1023.44
2017-11-16T05:21:05.608Z,1023.47
2017-11-16T05:22:14.729Z,1023.47
2017-11-16T05:23:23.837Z,1023.48
2017-11-16T05:24:32.658Z,1023.45
2017-11-16T05:25:41.489Z,1023.47
2017-11-16T05:26:50.324Z,1023.46
2017-11-16T05:27:59.439Z,1023.44
2017-11-16T05:29:08.268Z,1023.41
2017-11-16T05:30:17.100Z,1023.43
2017-11-16T05:31:25.928Z,1023.43
2017-11-16T05:32:34.811Z,1023.4
2017-11-16T05:33:43.639Z,1023.4
2017-11-16T05:34:52.467Z,1023.4
2017-11-16T05:36:01.296Z,1023.38
2017-11-16T05:37:10.126Z,1023.41
2017-11-16T05:38:19.259Z,1023.41
2017-11-16T05:39:28.112Z,1023.34
2017-11-16T05:40:37.198Z,1023.32
2017-11-16T05:41:46.028Z,1023.32
2017-11-16T05:42:54.857Z,1023.33
2017-11-16T05:44:03.841Z,1023.31
2017-11-16T05:45:12.671Z,1023.36
2017-11-16T05:46:21.504Z,1023.34
2017-11-16T05:47:30.335Z,1023.38
2017-11-16T05:48:39.163Z,1023.35
2017-11-16T05:49:48.144Z,1023.37
2017-11-16T05:50:56.975Z,1023.36
2017-11-16T05:52:05.808Z,1023.35
2017-11-16T05:53:14.639Z,1023.32
2017-11-16T05:54:23.521Z,1023.3
2017-11-16T05:55:32.400Z,1023.32
2017-11-16T05:56:41.232Z,1023.34
2017-11-16T05:57:50.067Z,1023.38
2017-11-16T05:58:59.174Z,1023.37
2017-11-16T06:00:08.286Z,1023.4
2017-11-16T06:01:17.224Z,1023.43
2017-11-16T06:02:26.055Z,1023.44
2017-11-16T06:03:35.173Z,1023.47
2017-11-16T06:04:44.016Z,1023.49
2017-11-16T06:05:52.835Z,1023.48
2017-11-16T06:07:01.665Z,1023.49
2017-11-16T06:08:10.495Z,1023.46
2017-11-16T06:09:19.327Z,1023.47
2017-11-16T06:10:28.159Z,1023.44
2017-11-16T06:11:36.990Z,1023.45
2017-11-16T06:12:45.876Z,1023.44
2017-11-16T06:13:54.986Z,1023.49
2017-11-16T06:15:03.819Z,1023.51
2017-11-16T06:16:12.657Z,1023.47
2017-11-16T06:17:21.763Z,1023.47
2017-11-16T06:18:31.031Z,1023.45
2017-11-16T06:19:39.861Z,1023.44
2017-11-16T06:20:48.691Z,1023.47
2017-11-16T06:21:57.518Z,1023.5
2017-11-16T06:23:06.400Z,1023.47
2017-11-16T06:24:15.335Z,1023.53
2017-11-16T06:25:24.164Z,1023.49
2017-11-16T06:26:32.995Z,1023.49
2017-11-16T06:27:42.116Z,1023.45
2017-11-16T06:28:50.947Z,1023.49
2017-11-16T06:29:59.831Z,1023.52
2017-11-16T06:31:08.660Z,1023.54
2017-11-16T06:32:17.496Z,1023.53
2017-11-16T06:33:26.321Z,1023.56
2017-11-16T06:34:35.152Z,1023.56
2017-11-16T06:35:44.385Z,1023.56
2017-11-16T06:36:53.491Z,1023.58
2017-11-16T06:38:02.322Z,1023.62
2017-11-16T06:39:11.155Z,1023.58
2017-11-16T06:40:19.985Z,1023.56
2017-11-16T06:41:28.864Z,1023.59
2017-11-16T06:42:37.696Z,1023.56
2017-11-16T06:43:46.528Z,1023.57
2017-11-16T06:44:55.361Z,1023.59
2017-11-16T06:46:04.193Z,1023.53
2017-11-16T06:47:13.123Z,1023.54
2017-11-16T06:48:21.952Z,1023.53
2017-11-16T06:49:30.784Z,1023.5
2017-11-16T06:50:39.615Z,1023.51
2017-11-16T06:51:48.450Z,1023.47
2017-11-16T06:52:57.377Z,1023.45
2017-11-16T06:54:06.208Z,1023.42
2017-11-16T06:55:15.040Z,1023.42
2017-11-16T06:56:23.870Z,1023.45
2017-11-16T06:57:32.700Z,1023.42
2017-11-16T06:58:41.583Z,1023.45
2017-11-16T06:59:50.420Z,1023.44
2017-11-16T07:00:59.251Z,1023.46
2017-11-16T07:02:08.082Z,1023.49
2017-11-16T07:03:16.915Z,1023.45
2017-11-16T07:04:25.754Z,1023.4
2017-11-16T07:05:34.579Z,1023.4
2017-11-16T07:06:43.407Z,1023.4
2017-11-16T07:07:52.525Z,1023.4
2017-11-16T07:09:01.357Z,1023.39
2017-11-16T07:10:10.657Z,1023.39
2017-11-16T07:11:19.448Z,1023.4
2017-11-16T07:12:28.280Z,1023.38
2017-11-16T07:13:37.391Z,1023.35
2017-11-16T07:14:46.224Z,1023.28
2017-11-16T07:15:55.353Z,1023.28
2017-11-16T07:17:04.187Z,1023.28
2017-11-16T07:18:13.124Z,1023.28
2017-11-16T07:19:21.947Z,1023.27
2017-11-16T07:20:30.780Z,1023.25
2017-11-16T07:21:39.860Z,1023.3
2017-11-16T07:22:49.008Z,1023.31
2017-11-16T07:23:57.840Z,1023.34
2017-11-16T07:25:06.770Z,1023.34
2017-11-16T07:26:15.878Z,1023.3
2017-11-16T07:27:24.809Z,1023.29
2017-11-16T07:28:33.641Z,1023.31
2017-11-16T07:29:42.471Z,1023.34
2017-11-16T07:30:51.303Z,1023.29
2017-11-16T07:32:00.136Z,1023.33
2017-11-16T07:33:09.353Z,1023.38
2017-11-16T07:34:18.191Z,1023.38
2017-11-16T07:35:27.021Z,1023.36
2017-11-16T07:36:36.137Z,1023.38
2017-11-16T07:37:45.244Z,1023.4
2017-11-16T07:38:54.072Z,1023.4
2017-11-16T07:40:02.907Z,1023.42
2017-11-16T07:41:11.734Z,1023.43
2017-11-16T07:42:20.846Z,1023.41
2017-11-16T07:43:29.678Z,1023.51
2017-11-16T07:44:38.609Z,1023.51
2017-11-16T07:45:47.440Z,1023.54
2017-11-16T07:46:56.273Z,1023.59
2017-11-16T07:48:05.676Z,1023.59
2017-11-16T07:49:14.506Z,1023.57
2017-11-16T07:50:23.587Z,1023.58
2017-11-16T07:51:32.420Z,1023.57
2017-11-16T07:52:41.251Z,1023.58
2017-11-16T07:53:50.363Z,1023.62
2017-11-16T07:54:59.194Z,1023.61
2017-11-16T07:56:08.084Z,1023.57
2017-11-16T07:57:16.914Z,1023.66
2017-11-16T07:58:25.746Z,1023.66
2017-11-16T07:59:34.584Z,1023.66
2017-11-16T08:00:43.416Z,1023.62
2017-11-16T08:01:52.548Z,1023.6
2017-11-16T08:03:01.377Z,1023.57
2017-11-16T08:04:10.207Z,1023.58
2017-11-16T08:05:19.040Z,1023.53
2017-11-16T08:06:28.145Z,1023.52
2017-11-16T08:07:37.557Z,1023.46
2017-11-16T08:08:46.389Z,1023.48
2017-11-16T08:09:55.220Z,1023.57
2017-11-16T08:11:04.052Z,1023.53
2017-11-16T08:12:12.881Z,1023.54
2017-11-16T08:13:21.712Z,1023.48
2017-11-16T08:14:30.540Z,1023.54
2017-11-16T08:15:39.374Z,1023.53
2017-11-16T08:16:48.206Z,1023.53
2017-11-16T08:17:57.039Z,1023.52
2017-11-16T08:19:06.021Z,1023.54
2017-11-16T08:20:14.852Z,1023.57
2017-11-16T08:21:23.681Z,1023.59
2017-11-16T08:22:32.513Z,1023.6
2017-11-16T08:23:41.343Z,1023.59
2017-11-16T08:24:50.278Z,1023.6
2017-11-16T08:25:59.108Z,1023.59
2017-11-16T08:27:07.943Z,1023.55
2017-11-16T08:28:16.777Z,1023.58
2017-11-16T08:29:25.885Z,1023.52
2017-11-16T08:30:34.866Z,1023.56
2017-11-16T08:31:43.697Z,1023.57
2017-11-16T08:32:52.531Z,1023.56
2017-11-16T08:34:01.359Z,1023.59
2017-11-16T08:35:10.189Z,1023.59
2017-11-16T08:36:19.421Z,1023.64
2017-11-16T08:37:28.254Z,1023.66
2017-11-16T08:38:37.084Z,1023.64
2017-11-16T08:39:46.195Z,1023.64
2017-11-16T08:40:55.026Z,1023.63
2017-11-16T08:42:04.057Z,1023.62
2017-11-16T08:43:12.894Z,1023.64
2017-11-16T08:44:21.720Z,1023.59
2017-11-16T08:45:30.554Z,1023.64
2017-11-16T08:46:39.675Z,1023.68
2017-11-16T08:47:48.657Z,1023.68
2017-11-16T08:48:57.488Z,1023.68
2017-11-16T08:50:06.320Z,1023.67
2017-11-16T08:51:15.150Z,1023.68
2017-11-16T08:52:23.985Z,1023.65
2017-11-16T08:53:32.865Z,1023.68
2017-11-16T08:54:41.698Z,1023.67
2017-11-16T08:55:50.530Z,1023.69
2017-11-16T08:56:59.361Z,1023.67
2017-11-16T08:58:08.195Z,1023.66
2017-11-16T08:59:17.124Z,1023.68
2017-11-16T09:00:25.958Z,1023.66
2017-11-16T09:01:34.787Z,1023.68
2017-11-16T09:02:43.618Z,1023.7
2017-11-16T09:03:52.452Z,1023.71
2017-11-16T09:05:01.334Z,1023.7
2017-11-16T09:06:10.177Z,1023.72
2017-11-16T09:07:19.277Z,1023.71
2017-11-16T09:08:28.383Z,1023.71
2017-11-16T09:09:37.212Z,1023.71
2017-11-16T09:10:46.388Z,1023.72
2017-11-16T09:11:55.222Z,1023.67
2017-11-16T09:13:04.050Z,1023.68
2017-11-16T09:14:12.882Z,1023.68
2017-11-16T09:15:21.714Z,1023.68
2017-11-16T09:16:30.545Z,1023.68
2017-11-16T09:17:39.374Z,1023.65
2017-11-16T09:18:48.205Z,1023.69
2017-11-16T09:19:57.037Z,1023.68
2017-11-16T09:21:05.869Z,1023.66
2017-11-16T09:22:14.801Z,1023.7
2017-11-16T09:23:23.634Z,1023.66
2017-11-16T09:24:32.465Z,1023.65
2017-11-16T09:25:41.307Z,1023.62
2017-11-16T09:26:50.130Z,1023.62
2017-11-16T09:27:59.221Z,1023.64
2017-11-16T09:29:08.345Z,1023.68
2017-11-16T09:30:17.178Z,1023.67
2017-11-16T09:31:26.298Z,1023.72
2017-11-16T09:32:35.409Z,1023.71
2017-11-16T09:33:44.822Z,1023.68
2017-11-16T09:34:53.654Z,1023.71
2017-11-16T09:36:02.487Z,1023.67
2017-11-16T09:37:11.318Z,1023.62
2017-11-16T09:38:20.157Z,1023.65
2017-11-16T09:39:28.980Z,1023.62
2017-11-16T09:40:37.810Z,1023.62
2017-11-16T09:41:46.639Z,1023.65
2017-11-16T09:42:55.472Z,1023.61
2017-11-16T09:44:04.304Z,1023.61
2017-11-16T09:45:13.535Z,1023.62
2017-11-16T09:46:22.365Z,1023.64
2017-11-16T09:47:31.471Z,1023.6
2017-11-16T09:48:40.305Z,1023.6
2017-11-16T09:49:49.135Z,1023.58
2017-11-16T09:50:58.410Z,1023.58
2017-11-16T09:52:07.522Z,1023.6
2017-11-16T09:53:16.353Z,1023.58
2017-11-16T09:54:25.184Z,1023.56
2017-11-16T09:55:34.295Z,1023.58
2017-11-16T09:56:43.174Z,1023.54
2017-11-16T09:57:52.006Z,1023.54
2017-11-16T09:59:00.843Z,1023.52
2017-11-16T10:00:09.668Z,1023.55
2017-11-16T10:01:18.498Z,1023.52
2017-11-16T10:02:27.679Z,1023.51
2017-11-16T10:03:36.511Z,1023.45
2017-11-16T10:04:45.342Z,1023.46
2017-11-16T10:05:54.173Z,1023.44
2017-11-16T10:07:03.001Z,1023.46
2017-11-16T10:08:11.931Z,1023.42
2017-11-16T10:09:20.766Z,1023.41
2017-11-16T10:10:29.595Z,1023.37
2017-11-16T10:11:38.427Z,1023.42
2017-11-16T10:12:47.258Z,1023.45
2017-11-16T10:13:56.478Z,1023.42
2017-11-16T10:15:05.306Z,1023.38
2017-11-16T10:16:14.139Z,1023.42
2017-11-16T10:17:23.260Z,1023.4
2017-11-16T10:18:32.092Z,1023.41
2017-11-16T10:19:41.381Z,1023.39
2017-11-16T10:20:50.210Z,1023.36
2017-11-16T10:21:59.040Z,1023.31
2017-11-16T10:23:07.874Z,1023.33
2017-11-16T10:24:16.707Z,1023.29
2017-11-16T10:25:25.886Z,1023.27
2017-11-16T10:26:34.715Z,1023.25
2017-11-16T10:27:43.594Z,1023.25
2017-11-16T10:28:52.379Z,1023.24
2017-11-16T10:30:01.212Z,1023.19
2017-11-16T10:31:10.242Z,1023.18
2017-11-16T10:32:19.074Z,1023.18
2017-11-16T10:33:27.907Z,1023.16
2017-11-16T10:34:36.736Z,1023.16
2017-11-16T10:35:45.850Z,1023.15
2017-11-16T10:36:54.836Z,1023.18
2017-11-16T10:38:03.668Z,1023.12
2017-11-16T10:39:12.778Z,1023.16
2017-11-16T10:40:21.609Z,1023.12
2017-11-16T10:41:30.718Z,1023.13
2017-11-16T10:42:39.600Z,1023.1
2017-11-16T10:43:48.429Z,1023.08
2017-11-16T10:44:57.259Z,1023.06
2017-11-16T10:46:06.091Z,1023
2017-11-16T10:47:15.200Z,1023.01
2017-11-16T10:48:24.080Z,1022.98
2017-11-16T10:49:32.910Z,1022.98
2017-11-16T10:50:41.742Z,1022.97
2017-11-16T10:51:50.850Z,1022.94
2017-11-16T10:52:59.682Z,1022.91
2017-11-16T10:54:08.814Z,1022.92
2017-11-16T10:55:17.643Z,1022.9
2017-11-16T10:56:26.492Z,1022.83
2017-11-16T10:57:35.305Z,1022.86
2017-11-16T10:58:44.151Z,1022.84
2017-11-16T10:59:53.576Z,1022.79
2017-11-16T11:01:02.408Z,1022.77
2017-11-16T11:02:11.239Z,1022.78
2017-11-16T11:03:20.356Z,1022.79
2017-11-16T11:04:29.185Z,1022.78
2017-11-16T11:05:38.267Z,1022.74
2017-11-16T11:06:47.099Z,1022.75
2017-11-16T11:07:55.929Z,1022.76
2017-11-16T11:09:04.760Z,1022.8
2017-11-16T11:10:13.593Z,1022.75
2017-11-16T11:11:22.523Z,1022.74
2017-11-16T11:12:31.637Z,1022.76
2017-11-16T11:13:40.468Z,1022.71
2017-11-16T11:14:49.300Z,1022.67
2017-11-16T11:15:58.142Z,1022.65
2017-11-16T11:17:07.023Z,1022.68
2017-11-16T11:18:15.851Z,1022.63
2017-11-16T11:19:24.681Z,1022.6
2017-11-16T11:20:33.516Z,1022.57
2017-11-16T11:21:42.349Z,1022.59
2017-11-16T11:22:51.227Z,1022.59
2017-11-16T11:24:00.342Z,1022.58
2017-11-16T11:25:09.175Z,1022.58
2017-11-16T11:26:18.008Z,1022.56
2017-11-16T11:27:26.843Z,1022.54
2017-11-16T11:28:35.926Z,1022.55
2017-11-16T11:29:44.761Z,1022.56
2017-11-16T11:30:53.593Z,1022.53
2017-11-16T11:32:02.707Z,1022.49
2017-11-16T11:33:11.538Z,1022.49
2017-11-16T11:34:20.777Z,1022.51
2017-11-16T11:35:29.606Z,1022.56
2017-11-16T11:36:38.437Z,1022.49
2017-11-16T11:37:47.273Z,1022.49
2017-11-16T11:38:56.100Z,1022.54
2017-11-16T11:40:05.082Z,1022.53
2017-11-16T11:41:13.915Z,1022.53
2017-11-16T11:42:22.748Z,1022.5
2017-11-16T11:43:31.911Z,1022.56
2017-11-16T11:44:40.743Z,1022.53
2017-11-16T11:45:49.776Z,1022.54
2017-11-16T11:46:58.616Z,1022.6
2017-11-16T11:48:07.735Z,1022.59
2017-11-16T11:49:16.566Z,1022.61
2017-11-16T11:50:25.682Z,1022.59
2017-11-16T11:51:34.615Z,1022.64
2017-11-16T11:52:43.722Z,1022.61
2017-11-16T11:53:52.553Z,1022.68
2017-11-16T11:55:01.383Z,1022.67
2017-11-16T11:56:10.214Z,1022.67
2017-11-16T11:57:19.053Z,1022.66
2017-11-16T11:58:28.158Z,1022.66
2017-11-16T11:59:36.993Z,1022.69
2017-11-16T12:00:45.822Z,1022.66
2017-11-16T12:01:54.651Z,1022.67
2017-11-16T12:03:03.685Z,1022.66
2017-11-16T12:04:12.517Z,1022.66
2017-11-16T12:05:21.350Z,1022.68
2017-11-16T12:06:30.781Z,1022.65
2017-11-16T12:07:39.613Z,1022.64
2017-11-16T12:08:48.546Z,1022.65
2017-11-16T12:09:57.378Z,1022.67
2017-11-16T12:11:06.495Z,1022.67
2017-11-16T12:12:15.323Z,1022.63
2017-11-16T12:13:24.154Z,1022.65
2017-11-16T12:14:33.189Z,1022.65
2017-11-16T12:15:42.043Z,1022.71
2017-11-16T12:16:50.852Z,1022.7
2017-11-16T12:17:59.686Z,1022.63
2017-11-16T12:19:08.521Z,1022.62
2017-11-16T12:20:17.448Z,1022.59
2017-11-16T12:21:26.571Z,1022.54
2017-11-16T12:22:35.679Z,1022.53
2017-11-16T12:23:44.511Z,1022.53
2017-11-16T12:24:53.341Z,1022.5
2017-11-16T12:26:02.278Z,1022.47
2017-11-16T12:27:11.105Z,1022.49
2017-11-16T12:28:19.937Z,1022.49
2017-11-16T12:29:28.768Z,1022.48
2017-11-16T12:30:37.600Z,1022.48
2017-11-16T12:31:47.021Z,1022.48
2017-11-16T12:32:55.857Z,1022.48
2017-11-16T12:34:04.965Z,1022.5
2017-11-16T12:35:13.796Z,1022.51
2017-11-16T12:36:22.627Z,1022.51
2017-11-16T12:37:31.560Z,1022.51
2017-11-16T12:38:40.391Z,1022.47
2017-11-16T12:39:49.259Z,1022.46
2017-11-16T12:40:58.055Z,1022.43
2017-11-16T12:42:06.892Z,1022.43
2017-11-16T12:43:15.767Z,1022.44
2017-11-16T12:44:24.598Z,1022.43
2017-11-16T12:45:33.430Z,1022.37
2017-11-16T12:46:42.264Z,1022.39
2017-11-16T12:47:51.097Z,1022.36
2017-11-16T12:48:59.932Z,1022.33
2017-11-16T12:50:08.759Z,1022.31
2017-11-16T12:51:17.590Z,1022.3
2017-11-16T12:52:26.421Z,1022.3
2017-11-16T12:53:35.530Z,1022.23
2017-11-16T12:54:44.512Z,1022.24
2017-11-16T12:55:53.343Z,1022.18
2017-11-16T12:57:02.174Z,1022.19
2017-11-16T12:58:11.023Z,1022.2
2017-11-16T12:59:19.836Z,1022.18
2017-11-16T13:00:28.871Z,1022.16
2017-11-16T13:01:37.987Z,1022.12
2017-11-16T13:02:46.818Z,1022.09
2017-11-16T13:03:55.651Z,1022.07
2017-11-16T13:05:04.483Z,1021.95
2017-11-16T13:06:13.413Z,1021.97
2017-11-16T13:07:22.243Z,1021.94
2017-11-16T13:08:31.095Z,1021.96
2017-11-16T13:09:40.188Z,1021.94
2017-11-16T13:10:49.024Z,1021.96
2017-11-16T13:11:58.386Z,1021.9
2017-11-16T13:13:07.221Z,1021.9
2017-11-16T13:14:16.338Z,1021.9
2017-11-16T13:15:25.172Z,1021.86
2017-11-16T13:16:34.006Z,1021.84
2017-11-16T13:17:43.038Z,1021.86
2017-11-16T13:18:51.869Z,1021.81
2017-11-16T13:20:00.699Z,1021.81
2017-11-16T13:21:09.529Z,1021.79
2017-11-16T13:22:18.362Z,1021.79
2017-11-16T13:23:27.295Z,1021.71
2017-11-16T13:24:36.127Z,1021.74
2017-11-16T13:25:44.960Z,1021.74
2017-11-16T13:26:53.794Z,1021.82
2017-11-16T13:28:02.916Z,1021.77
2017-11-16T13:29:11.801Z,1021.74
2017-11-16T13:30:20.636Z,1021.77
2017-11-16T13:31:29.473Z,1021.76
2017-11-16T13:32:38.583Z,1021.72
2017-11-16T13:33:47.414Z,1021.76
2017-11-16T13:34:56.295Z,1021.73
2017-11-16T13:36:05.128Z,1021.75
2017-11-16T13:37:13.964Z,1021.74
2017-11-16T13:38:22.810Z,1021.73
2017-11-16T13:39:31.652Z,1021.72
2017-11-16T13:40:40.585Z,1021.74
2017-11-16T13:41:49.426Z,1021.69
2017-11-16T13:42:58.267Z,1021.7
2017-11-16T13:44:07.389Z,1021.65
2017-11-16T13:45:16.240Z,1021.68
2017-11-16T13:46:25.185Z,1021.66
2017-11-16T13:47:34.026Z,1021.65
2017-11-16T13:48:42.866Z,1021.66
2017-11-16T13:49:51.705Z,1021.65
2017-11-16T13:51:00.545Z,1021.62
2017-11-16T13:52:09.477Z,1021.68
2017-11-16T13:53:18.316Z,1021.7
2017-11-16T13:54:27.147Z,1021.67
2017-11-16T13:55:35.978Z,1021.69
2017-11-16T13:56:44.816Z,1021.66